Albury, New South Wales

12:51 AM AEDT on December 28, 2014 (GMT +1100)
Albury | Change Station
CLOSE
Current Station
Airport
Location: Albury,
Elevation: 541 ft
Nearby Weather Stations

Elev 541 ft 36.07 °S, 146.96 °E | Updated 51 minutes ago

Clear
Clear
68 °F
Feels Like 68 °F
N
4
Wind Variable Wind from ESE

Today
High -- | Low -- °F
--% Chance of Precip.
Yesterday
High -- | Low -- °F
Precip. -- in
5:55 AM 8:31 PM
Waxing Crescent, 36% visible
Pressure 30.01 in
Visibility 6.2 miles
Clouds
Dew Point 50 °F
Humidity 52%
Rainfall 0.00 in
Snow Depth Not available.
UV Not available.
Pollen Not available.
Air Quality Not available.
Flu Activity Not available.
METAR YMAY 271300Z AUTO 12003KT 9999 // NCD 20/10 Q1016

More Conditions Fewer Conditions

Pressure 30.01 in
Visibility 6.2 miles
Clouds
Dew Point 50 °F
Humidity 52%
Rainfall 0.00 in
Snow Depth Not available.
UV Not available.
Pollen Not available.
Air Quality Not available.
Flu Activity Not available.
METAR YMAY 271300Z AUTO 12003KT 9999 // NCD 20/10 Q1016

More Conditions Fewer Conditions

10-Day Weather Forecast

Almanac

Astronomy

Dec. 28, 2014 Rise Set
Actual Time
Civil Twilight
Nautical Twilight
Astronomical Twilight
Moon
Length of Visible Light
Length of Day
Tomorrow will be .
, % of the Moon is Illuminated

Today's Extremes

Country Highs Country Lows

Community

WunderPhotos

Upload Photos

1,780,899 photos uploaded!

WunderBlogs® & News

Nearby

Air Quality

  Air Quality AQ Index Pollutant
Not available.

Snow Depth

Station Depth Elevation

Earthquake Activity

City Distance Mag. Time & Date
Minimum magnitude displayed is 2.5.

Coastal Water Temperatures

Place Temperature

Nearby Weather Stations